Tiempo atmosférico en la estación meteorológica de Riaño, León (1090 m.)



Fecha
DESCASC
Temp. máxima en grados centígrados (hora)
DESCASC
Temp. mínima en grados centígrados (hora)
DESCASC
Temp. media en grados centígrados
DESCASC
Racha de viento máxima en m/sg (hora)
DESCASC
Velocidad máxima media en intervalos de 10 minutos(hora)
DESCASC
Precipitaciones diarias en mm
DESCASC
Precipitaciones de 00:00 a 06:00 en mm
DESCASC
Precipitaciones de 06:00 a 12:00 en mm
DESCASC
Precipitaciones de 12:00 a 18:00 en mm
DESCASC
Precipitaciones de 18:00 a 24:00 en mm
DESCASC
18-08-2019 24.5 (12:50) 9.2 (07:40) 16.8 12.22 (15:00) 8.61 (14:20) 6.4 0 0 6.4 0
17-08-2019 29.5 (16:10) 12 (05:00) 20.8 10 (15:50) 5 (15:50) 0 0 0 0 0
16-08-2019 29.9 (17:40) 7.7 (07:50) 18.8 9.17 (19:40) 6.11 (19:40) 0 0 0 0 0
15-08-2019 25.6 (14:10) 9.5 (00:00) 17.6 10.83 (18:00) 7.22 (17:40) 0 0 0 0 0
14-08-2019 26.7 (14:40) 9.3 (00:00) 18 10 (21:40) 7.22 (21:40) 0 0 0 0 0
13-08-2019 24 (16:50) 6.4 (00:00) 15.2 9.44 (21:20) 4.44 (20:20) 0 0 0 0 0
12-08-2019 17.9 (14:10) 7.9 (00:00) 12.9 10.56 (13:10) 7.22 (19:10) 0 0 0 0 0
11-08-2019 19.2 (16:40) 9.5 (00:00) 14.4 11.11 (18:20) 7.78 (18:00) 1.8 1.6 0 0.2 0
10-08-2019 23.2 (15:20) 9.9 (00:00) 16.6 11.67 (19:50) 8.61 (19:50) 0 0 0 0 0
09-08-2019 23.5 (16:10) 14.1 (00:00) 18.8 13.61 (03:20) 6.94 (14:30) 5 0.4 4.4 0.2 0
08-08-2019 22.6 (18:30) 15.6 (00:00) 19.1 12.78 (19:20) 6.67 (19:00) 0.6 0 0.2 0.2 0.2
07-08-2019 23 (13:30) 13.4 (00:00) 18.2 8.89 (15:50) 5 (00:20) 0 0 0 0 0
06-08-2019 27.3 (14:40) 14.2 (00:00) 20.7 13.33 (20:10) 8.61 (18:50) 0 0 0 0 0
05-08-2019 28.7 (15:20) 13.2 (00:00) 21 10.83 (19:40) 7.22 (21:20) 0 0 0 0 0
04-08-2019 29.1 (18:10) 10.7 (00:00) 19.9 14.17 (19:40) 8.61 (20:00) 0 0 0 0 0
03-08-2019 29.6 (16:40) 9.7 (00:00) 19.7 11.11 (18:30) 8.61 (18:30) 0 0 0 0 0
02-08-2019 28.5 (15:30) 10.3 (00:00) 19.4 9.17 (19:50) 6.39 (17:50) 0 0 0 0 0
01-08-2019 23.6 (17:20) 11 (00:00) 17.3 10.83 (19:40) 7.5 (17:50) 0 0 0 0 0
31-07-2019 24.4 (14:40) 8.3 (00:00) 16.3 10.28 (20:20) 6.94 (20:10) 0 0 0 0 0
30-07-2019 20.5 (16:00) 9.3 (00:00) 14.9 11.67 (20:40) 8.61 (20:40) 0 0 0 0 0
29-07-2019 22.6 (17:30) 7.4 (00:00) 15 11.39 (19:10) 8.06 (19:50) 0 0 0 0 0
28-07-2019 22.8 (17:00) 7.4 (00:00) 15.1 6.67 (01:40) 4.44 (00:30) 0 0 0 0 0
27-07-2019 15.6 (16:20) 11 (00:00) 13.3 11.94 (16:40) 6.67 (17:50) 4.8 1.4 2.2 1 0.2
26-07-2019 17.7 (00:00) 12.3 (00:00) 15 10.56 (15:30) 8.06 (15:50) 46 7.4 38.6 0 0
25-07-2019 29.5 (16:50) 12.9 (00:00) 21.2 12.22 (17:20) 5.83 (16:40) 0 0 0 0 0
24-07-2019 30.4 (18:00) 13.2 (00:00) 21.8 11.67 (14:40) 5.28 (12:30) 0 0 0 0 0
23-07-2019 30 (18:40) 14.1 (00:00) 22.1 11.94 (21:00) 7.5 (21:00) 0.2 0.2 0 0 0
22-07-2019 33.5 (17:20) 13.5 (00:00) 23.5 26.94 (21:10) 15.56 (21:10) 7.4 0 0 0 7.4
21-07-2019 30.7 (16:50) 12.6 (00:00) 21.7 12.5 (18:00) 7.5 (17:30) 0 0 0 0 0

Gráficas

Temp. máximas Temp. mínimas Temp. medias Precipitaciones Rachas de viento máximas Velocidades máximas media en intervalos de 10 minutos

Datos horarios

Fecha y hora oficial Temperatura (ºC) Velocidad del viento (km/h) Dirección del viento Racha (km/h) Dirección de racha Precipitación (mm) Presión (hPa) Tendencia (hPa) Humedad (%)
2019-08-19 23:00:00 12.3 12 Noroeste 33 Noroeste 0 -- -- 84
2019-08-19 22:00:00 12.5 19 Noroeste 39 Norte 0 -- -- 83
2019-08-19 21:00:00 12.9 17 Noroeste 39 Noroeste 0 -- -- 82
2019-08-19 20:00:00 13.3 17 Norte 41 Norte 0 -- -- 81
2019-08-19 19:00:00 14.6 28 Norte 42 Norte 0 -- -- 78
2019-08-19 18:00:00 16.3 30 Norte 41 Norte 0 -- -- 72
2019-08-19 17:00:00 19 30 Norte 38 Norte 0 -- -- 64
2019-08-19 16:00:00 19 24 Norte 32 Norte 0 -- -- 63
2019-08-19 15:00:00 19.4 23 Norte 35 Norte 0 -- -- 62
2019-08-19 14:00:00 19.5 13 Norte 25 Norte 0 -- -- 61
2019-08-19 13:00:00 18.9 15 Norte 21 Norte 0 -- -- 63
2019-08-19 12:00:00 16 13 Norte 23 Norte 0 -- -- 72
2019-08-19 11:00:00 15.2 15 Norte 24 Norte 0 -- -- 76
2019-08-19 10:00:00 13 13 Norte 26 Nordeste 0 -- -- 84
2019-08-19 09:00:00 11.8 15 Norte 25 Nordeste 0 -- -- 87
2019-08-19 08:00:00 11.2 16 Norte 23 Norte 0 -- -- 89
2019-08-19 07:00:00 11.1 8 Norte 25 Norte 0 -- -- 88
2019-08-19 06:00:00 11.2 19 Norte 30 Norte 0 -- -- 88
2019-08-19 05:00:00 11.5 12 Norte 28 Norte 0 -- -- 86
2019-08-19 04:00:00 11.6 15 Norte 26 Nordeste 0 -- -- 90
2019-08-19 03:00:00 11.6 13 Norte 28 Norte 0 -- -- 87
2019-08-19 02:00:00 11.7 19 Norte 28 Nordeste 0 -- -- 92
2019-08-19 01:00:00 11.7 13 Norte 32 Norte 0 -- -- 90
2019-08-19 00:00:00 12.3 17 Norte 30 Norte 0 -- -- 89
2019-08-18 23:00:00 12.6 18 Norte 36 Norte 0 -- -- 89
2019-08-18 22:00:00 12.4 22 Norte 40 Norte 0 -- -- 92
2019-08-18 21:00:00 13 22 Norte 38 Norte 0 -- -- 92
2019-08-18 20:00:00 14.4 18 Norte 32 Nordeste 0 -- -- 90
2019-08-18 19:00:00 16.7 15 Norte 31 Norte 0 -- -- 84
2019-08-18 18:00:00 16.8 15 Norte 25 Norte 0.2 -- -- 91
2019-08-18 17:00:00 15 16 Norte 34 Norte 2.2 -- -- 94
2019-08-18 16:00:00 16.1 22 Norte 36 Norte 3 -- -- 91
2019-08-18 15:00:00 16.1 21 Norte 44 Norte 1 -- -- 87
2019-08-18 14:00:00 24 14 Sudeste 21 Sur 0 -- -- 52
2019-08-18 13:00:00 24.3 11 Norte 16 Norte 0 -- -- 52
2019-08-18 12:00:00 20.9 4 Nordeste 9 Nordeste 0 -- -- 67
2019-08-18 11:00:00 16.6 3 Noroeste 8 Norte 0 -- -- 72
2019-08-18 10:00:00 14.4 3 Norte 7 Norte 0 -- -- 82
2019-08-18 09:00:00 12.1 3 Nordeste 6 Sudeste 0 -- -- 88
2019-08-18 08:00:00 9.3 0 Calma 8 Sudoeste 0 -- -- 94
2019-08-18 07:00:00 9.4 0 Calma 6 Noroeste 0 -- -- 91
2019-08-18 06:00:00 9.8 0 Calma 5 Sur 0 -- -- 92
2019-08-18 05:00:00 10.5 0 Calma 6 Sur 0 -- -- 90
2019-08-18 04:00:00 11.4 0 Calma 6 Norte 0 -- -- 89
2019-08-18 03:00:00 12.6 3 Sudoeste 6 Sudoeste 0 -- -- 87
2019-08-18 02:00:00 13.7 0 Calma 4 Sudoeste 0 -- -- 81
2019-08-18 01:00:00 15 0 Calma 7 Noroeste 0 -- -- 79
2019-08-18 00:00:00 16.7 0 Calma 4 Nordeste 0 -- -- 79
2019-08-17 23:00:00 18.6 0 Calma 9 Noroeste 0 -- -- 71
2019-08-17 22:00:00 20.9 5 Noroeste 11 Noroeste 0 -- -- 66
2019-08-17 21:00:00 23.8 4 Sudoeste 21 Sur 0 -- -- 45
2019-08-17 20:00:00 26.9 8 Sudoeste 22 Sudoeste 0 -- -- 40
2019-08-17 19:00:00 28.5 6 Oeste 30 Sudoeste 0 -- -- 35
2019-08-17 18:00:00 29.4 6 Sudoeste 28 Oeste 0 -- -- 35
2019-08-17 17:00:00 28.8 13 Sudoeste 25 Oeste 0 -- -- 35
2019-08-17 16:00:00 29.3 11 Sur 36 Sudoeste 0 -- -- 39
2019-08-17 15:00:00 28.4 10 Sur 30 Sudoeste 0 -- -- 42
2019-08-17 14:00:00 28 5 Nordeste 11 Norte 0 -- -- 43
2019-08-17 13:00:00 25.9 5 Nordeste 7 Este 0 -- -- 57
2019-08-17 12:00:00 21.8 6 Nordeste 8 Norte 0 -- -- 64
2019-08-17 11:00:00 17.7 6 Nordeste 8 Nordeste 0 -- -- 82
2019-08-17 10:00:00 13.1 2 Sudoeste 8 Sudeste 0 -- -- 96
2019-08-17 09:00:00 12.6 4 Este 11 Este 0 -- -- 96
2019-08-17 08:00:00 12.2 0 Calma 10 Este 0 -- -- 96
2019-08-17 07:00:00 12.7 4 Este 8 Este 0 -- -- 96
2019-08-17 06:00:00 12.5 0 Calma 5 Sur 0 -- -- 96
2019-08-17 05:00:00 12 0 Calma 4 Norte 0 -- -- 94
2019-08-17 04:00:00 12.7 3 Noroeste 7 Norte 0 -- -- 93
2019-08-17 03:00:00 13.5 0 Calma 8 Sudoeste 0 -- -- 91
2019-08-17 02:00:00 14.4 3 Sudoeste 6 Sudoeste 0 -- -- 91
2019-08-17 01:00:00 15.6 0 Calma 8 Nordeste 0 -- -- 87
2019-08-17 00:00:00 16.9 3 Norte 12 Norte 0 -- -- 84
2019-08-16 23:00:00 18.7 9 Norte 20 Nordeste 0 -- -- 77
2019-08-16 22:00:00 20.2 4 Sudoeste 20 Oeste 0 -- -- 71
2019-08-16 21:00:00 21.5 8 Noroeste 31 Norte 0 -- -- 68
2019-08-16 20:00:00 23.7 16 Norte 33 Nordeste 0 -- -- 63
2019-08-16 19:00:00 27.1 17 Norte 32 Norte 0 -- -- 49
2019-08-16 18:00:00 29.7 5 Sudoeste 26 Sudoeste 0 -- -- 31
2019-08-16 17:00:00 29.7 6 Sudoeste 23 Sur 0 -- -- 34
2019-08-16 16:00:00 28.9 7 Sudoeste 21 Sudoeste 0 -- -- 37
2019-08-16 15:00:00 28.1 8 Sudoeste 22 Sudoeste 0 -- -- 42
2019-08-16 14:00:00 27.4 7 Sur 17 Oeste 0 -- -- 41
2019-08-16 13:00:00 26.2 8 Norte 11 Nordeste 0 -- -- 51
2019-08-16 12:00:00 22 5 Nordeste 6 Nordeste 0 -- -- 57
2019-08-16 11:00:00 18 3 Nordeste 6 Nordeste 0 -- -- 66
2019-08-16 10:00:00 14.1 2 Nordeste 6 Este 0 -- -- 77
2019-08-16 09:00:00 11 0 Calma 5 Sudeste 0 -- -- 84
2019-08-16 08:00:00 8 0 Calma 3 Noroeste 0 -- -- 95
2019-08-16 07:00:00 7.9 0 Calma 2 Noroeste 0 -- -- 93
2019-08-16 06:00:00 8.6 0 Calma 3 Sudoeste 0 -- -- 91
2019-08-16 05:00:00 9.1 0 Calma 3 Noroeste 0 -- -- 89
2019-08-16 04:00:00 9.7 0 Calma 2 Noroeste 0 -- -- 88
2019-08-16 03:00:00 10.6 0 Calma 4 Este 0 -- -- 85
2019-08-16 02:00:00 11.8 0 Calma 5 Nordeste 0 -- -- 84
2019-08-16 01:00:00 13.2 2 Sudeste 8 Norte 0 -- -- 83
2019-08-16 00:00:00 15 2 Sudoeste 15 Este 0 -- -- 80
2019-08-15 23:00:00 16.6 5 Noroeste 22 Nordeste 0 -- -- 75
2019-08-15 22:00:00 17.8 7 Norte 29 Norte 0 -- -- 69
2019-08-15 21:00:00 18.8 15 Norte 31 Norte 0 -- -- 66
2019-08-15 20:00:00 20.9 20 Norte 35 Norte 0 -- -- 60
2019-08-15 19:00:00 22.7 23 Norte 36 Norte 0 -- -- 55
2019-08-15 18:00:00 24 23 Norte 39 Norte 0 -- -- 54
2019-08-15 17:00:00 25.2 22 Norte 35 Norte 0 -- -- 51
2019-08-15 16:00:00 25.3 21 Norte 30 Norte 0 -- -- 49
2019-08-15 15:00:00 25.3 19 Norte 28 Norte 0 -- -- 47
2019-08-15 14:00:00 25.4 11 Norte 22 Norte 0 -- -- 46
2019-08-15 13:00:00 24.8 8 Norte 14 Norte 0 -- -- 46
2019-08-15 12:00:00 21.1 3 Este 7 Nordeste 0 -- -- 50
2019-08-15 11:00:00 17.8 3 Nordeste 6 Nordeste 0 -- -- 72
2019-08-15 10:00:00 14.5 3 Nordeste 8 Este 0 -- -- 80
2019-08-15 09:00:00 11.7 4 Este 8 Este 0 -- -- 92
2019-08-15 08:00:00 9.7 3 Sur 8 Sudeste 0 -- -- 96
2019-08-15 07:00:00 10.1 3 Este 11 Este 0 -- -- 95
2019-08-15 06:00:00 11 3 Sudeste 14 Este 0 -- -- 94
2019-08-15 05:00:00 12.2 2 Noroeste 13 Sudeste 0 -- -- 94
2019-08-15 04:00:00 12.8 0 Calma 7 Oeste 0 -- -- 93
2019-08-15 03:00:00 13.9 0 Calma 24 Nordeste 0 -- -- 91
2019-08-15 02:00:00 15.1 14 Nordeste 24 Norte 0 -- -- 92
2019-08-15 01:00:00 15.6 13 Norte 26 Norte 0 -- -- 90
2019-08-15 00:00:00 16.2 4 Noroeste 21 Nordeste 0 -- -- 87
2019-08-14 23:00:00 16.9 12 Norte 35 Nordeste 0 -- -- 85
2019-08-14 22:00:00 17.8 17 Norte 36 Norte 0 -- -- 81
2019-08-14 21:00:00 19.9 22 Norte 31 Norte 0 -- -- 73
2019-08-14 20:00:00 22.7 18 Norte 30 Norte 0 -- -- 62
2019-08-14 19:00:00 24.1 21 Norte 31 Norte 0 -- -- 58
2019-08-14 18:00:00 25.5 18 Norte 24 Norte 0 -- -- 55
2019-08-14 17:00:00 25.9 17 Norte 30 Norte 0 -- -- 53
2019-08-14 16:00:00 25.7 16 Norte 25 Norte 0 -- -- 53
2019-08-14 15:00:00 25.7 8 Norte 21 Norte 0 -- -- 50
2019-08-14 14:00:00 23.8 5 Nordeste 9 Nordeste 0 -- -- 57
2019-08-14 13:00:00 23.1 4 Nordeste 9 Norte 0 -- -- 48
2019-08-14 12:00:00 19.9 4 Nordeste 7 Norte 0 -- -- 64
2019-08-14 11:00:00 15.7 4 Nordeste 8 Nordeste 0 -- -- 80
2019-08-14 10:00:00 11.3 0 Calma 11 Este 0 -- -- 94
2019-08-14 09:00:00 10.3 4 Sudeste 11 Este 0 -- -- 97
2019-08-14 08:00:00 9.9 9 Este 13 Este 0 -- -- 97
2019-08-14 07:00:00 10 5 Este 12 Este 0 -- -- 96
2019-08-14 06:00:00 10 2 Sudoeste 7 Este 0 -- -- 97
2019-08-14 05:00:00 9.5 3 Sur 5 Sur 0 -- -- 97
2019-08-14 04:00:00 9.6 0 Calma 5 Este 0 -- -- 94
2019-08-14 03:00:00 10.3 0 Calma 6 Sur 0 -- -- 92
2019-08-14 02:00:00 11 0 Calma 5 Sudeste 0 -- -- 92
2019-08-14 01:00:00 11.8 0 Calma 5 Oeste 0 -- -- 89
2019-08-14 00:00:00 13.2 2 Noroeste 9 Este 0 -- -- 87
2019-08-13 23:00:00 14.4 7 Este 21 Norte 0 -- -- 86
2019-08-13 22:00:00 15.3 10 Norte 34 Norte 0 -- -- 81
2019-08-13 21:00:00 17 14 Norte 32 Norte 0 -- -- 74
2019-08-13 20:00:00 21 12 Norte 26 Nordeste 0 -- -- 56
2019-08-13 19:00:00 22.7 9 Norte 18 Norte 0 -- -- 52
2019-08-13 18:00:00 22.8 14 Norte 22 Nordeste 0 -- -- 53
2019-08-13 17:00:00 23.8 9 Norte 19 Norte 0 -- -- 42
2019-08-13 16:00:00 23.6 10 Norte 17 Nordeste 0 -- -- 40
2019-08-13 15:00:00 23 13 Norte 17 Norte 0 -- -- 42
2019-08-13 14:00:00 21.2 5 Este 10 Nordeste 0 -- -- 43
2019-08-13 13:00:00 19.3 4 Este 8 Nordeste 0 -- -- 47
2019-08-13 12:00:00 16.6 5 Nordeste 9 Nordeste 0 -- -- 65
2019-08-13 11:00:00 13 4 Nordeste 6 Sudeste 0 -- -- 76
2019-08-13 10:00:00 8.8 2 Sur 10 Sudeste 0 -- -- 89
2019-08-13 09:00:00 7.3 3 Sudeste 12 Este 0 -- -- 94
2019-08-13 08:00:00 6.6 5 Este 9 Este 0 -- -- 94
2019-08-13 07:00:00 6.5 4 Sudeste 9 Sudeste 0 -- -- 94
2019-08-13 06:00:00 6.6 5 Este 8 Este 0 -- -- 94
2019-08-13 05:00:00 7 0 Calma 8 Este 0 -- -- 93
2019-08-13 04:00:00 7.8 4 Nordeste 12 Nordeste 0 -- -- 89
2019-08-13 03:00:00 8.9 6 Este 17 Norte 0 -- -- 87
2019-08-13 02:00:00 9.9 14 Norte 22 Norte 0 -- -- 86
2019-08-13 01:00:00 10.3 8 Noroeste 28 Norte 0 -- -- 80
2019-08-13 00:00:00 10.7 16 Norte 29 Norte 0 -- -- 82
2019-08-12 23:00:00 11.4 19 Norte 32 Norte 0 -- -- 81
2019-08-12 22:00:00 12 23 Norte 32 Norte 0 -- -- 80
2019-08-12 21:00:00 13.1 10 Noroeste 28 Norte 0 -- -- 66
2019-08-12 20:00:00 13.6 19 Norte 33 Norte 0 -- -- 68
2019-08-12 19:00:00 14.7 14 Norte 32 Norte 0 -- -- 64
2019-08-12 18:00:00 15.6 13 Norte 35 Norte 0 -- -- 56
2019-08-12 17:00:00 16.6 14 Norte 32 Norte 0 -- -- 55
2019-08-12 16:00:00 16 17 Noroeste 33 Noroeste 0 -- -- 56
2019-08-12 15:00:00 17 13 Noroeste 31 Norte 0 -- -- 54
2019-08-12 14:00:00 17.7 19 Norte 38 Norte 0 -- -- 52
2019-08-12 13:00:00 15.9 10 Norte 28 Norte 0 -- -- 58
2019-08-12 12:00:00 13.9 13 Norte 34 Norte 0 -- -- 70
2019-08-12 11:00:00 14.8 22 Norte 31 Norte 0 -- -- 64
2019-08-12 10:00:00 12.8 19 Norte 25 Norte 0 -- -- 69
2019-08-12 09:00:00 11 20 Norte 32 Norte 0 -- -- 79
2019-08-12 08:00:00 8.3 5 Noroeste 18 Nordeste 0 -- -- 89
2019-08-12 07:00:00 8.2 7 Este 22 Norte 0 -- -- 89
2019-08-12 06:00:00 8.2 9 Este 21 Norte 0 -- -- 89
2019-08-12 05:00:00 8.5 6 Nordeste 25 Nordeste 0 -- -- 87
2019-08-12 04:00:00 8.5 3 Este 15 Sur 0 -- -- 89
2019-08-12 03:00:00 8.8 5 Este 13 Nordeste 0 -- -- 86
2019-08-12 02:00:00 8.9 7 Nordeste 13 Norte 0 -- -- 86
2019-08-12 01:00:00 9.5 10 Norte 25 Norte 0 -- -- 81
2019-08-12 00:00:00 9.5 7 Norte 27 Nordeste 0 -- -- 79
2019-08-11 23:00:00 10 10 Norte 27 Norte 0 -- -- 77
2019-08-11 22:00:00 10.8 19 Norte 31 Norte 0 -- -- 80
2019-08-11 21:00:00 11.6 21 Norte 36 Norte 0 -- -- 78
2019-08-11 20:00:00 12.5 15 Norte 38 Nordeste 0 -- -- 74
2019-08-11 19:00:00 14.5 20 Norte 40 Norte 0 -- -- 73
2019-08-11 18:00:00 18 28 Norte 36 Norte 0 -- -- 66
2019-08-11 17:00:00 18.8 24 Norte 31 Norte 0 -- -- 63
2019-08-11 16:00:00 18 18 Norte 28 Norte 0 -- -- 65
2019-08-11 15:00:00 16.3 18 Norte 34 Norte 0 -- -- 72
2019-08-11 14:00:00 13.9 11 Noroeste 35 Norte 0.2 -- -- 76
2019-08-11 13:00:00 17.9 17 Norte 27 Norte 0 -- -- 67
2019-08-11 12:00:00 17.7 13 Norte 22 Norte 0 -- -- 72
2019-08-11 11:00:00 16.6 9 Norte 24 Norte 0 -- -- 75
2019-08-11 10:00:00 13.7 19 Norte 23 Norte 0 -- -- 92
2019-08-11 09:00:00 11 3 Sur 10 Este 0 -- -- 95
2019-08-11 08:00:00 9.5 3 Sudoeste 6 Sudoeste 0 -- -- 95
2019-08-11 07:00:00 10.3 4 Sudoeste 7 Sudoeste 0 -- -- 94
2019-08-11 06:00:00 11 4 Sur 11 Sudeste 0.6 -- -- 92
2019-08-11 05:00:00 11.4 9 Nordeste 17 Nordeste 1 -- -- 92
2019-08-11 04:00:00 11.8 5 Noroeste 19 Norte 0 -- -- 88
2019-08-11 03:00:00 12.5 16 Nordeste 22 Nordeste 0 -- -- 87
2019-08-11 02:00:00 12.6 17 Norte 23 Nordeste 0 -- -- 87
2019-08-11 01:00:00 12.5 13 Norte 26 Norte 0 -- -- 86
2019-08-11 00:00:00 12.8 17 Norte 30 Norte 0 -- -- 88
2019-08-10 23:00:00 13.2 16 Norte 33 Norte 0 -- -- 84
2019-08-10 22:00:00 13.2 17 Norte 39 Norte 0 -- -- 87
2019-08-10 21:00:00 14.3 27 Norte 42 Norte 0 -- -- 85
2019-08-10 20:00:00 16.7 29 Norte 42 Norte 0 -- -- 75
2019-08-10 19:00:00 20.9 23 Norte 40 Nordeste 0 -- -- 60
2019-08-10 18:00:00 22.6 9 Sudoeste 25 Sudoeste 0 -- -- 34
2019-08-10 17:00:00 22.7 10 Sudoeste 25 Sudoeste 0 -- -- 30
2019-08-10 16:00:00 22.8 9 Sudoeste 28 Sudeste 0 -- -- 37
2019-08-10 15:00:00 22.7 12 Sur 30 Sudeste 0 -- -- 39
2019-08-10 14:00:00 21.8 11 Sur 30 Sudeste 0 -- -- 39
2019-08-10 13:00:00 21 10 Sur 23 Sur 0 -- -- 46
2019-08-10 12:00:00 20.4 8 Sudeste 17 Sudeste 0 -- -- 47
2019-08-10 11:00:00 18.7 4 Norte 8 Nordeste 0 -- -- 60
2019-08-10 10:00:00 15.5 3 Norte 9 Nordeste 0 -- -- 70
2019-08-10 09:00:00 12.4 3 Sur 7 Este 0 -- -- 80
2019-08-10 08:00:00 10 3 Sur 6 Sudoeste 0 -- -- 85
2019-08-10 07:00:00 10.9 4 Sudoeste 10 Sudoeste 0 -- -- 84
2019-08-10 06:00:00 11.4 3 Oeste 6 Sudoeste 0 -- -- 84
2019-08-10 05:00:00 11.8 3 Sur 6 Sudoeste 0 -- -- 82
2019-08-10 04:00:00 12.1 2 Sudoeste 8 Sudoeste 0 -- -- 78
2019-08-10 03:00:00 12.1 0 Calma 8 Sudoeste 0 -- -- 81
2019-08-10 02:00:00 12.7 0 Calma 8 Sur 0 -- -- 79
2019-08-10 01:00:00 13.7 3 Sudoeste 10 Este 0 -- -- 73
2019-08-10 00:00:00 14.1 0 Calma 9 Sudoeste 0 -- -- 73
2019-08-09 23:00:00 15.1 3 Sudoeste 10 Oeste 0 -- -- 65
2019-08-09 22:00:00 15.9 3 Sudoeste 9 Sur 0 -- -- 65
2019-08-09 21:00:00 17.1 0 Calma 15 Sudoeste 0 -- -- 58
2019-08-09 20:00:00 18.2 5 Sudoeste 21 Sudoeste 0 -- -- 56
2019-08-09 19:00:00 19.3 6 Sudoeste 26 Oeste 0 -- -- 55
2019-08-09 18:00:00 19.7 11 Sudoeste 27 Sudoeste 0 -- -- 49
2019-08-09 17:00:00 22 11 Sudoeste 33 Sur 0 -- -- 51
2019-08-09 16:00:00 22.8 16 Sur 35 Sur 0 -- -- 50
2019-08-09 15:00:00 21.8 19 Sur 39 Sudoeste 0.2 -- -- 54
2019-08-09 14:00:00 21.2 15 Sudoeste 34 Sudoeste 0 -- -- 59
2019-08-09 13:00:00 20.7 10 Sudoeste 22 Sudoeste 0 -- -- 67
2019-08-09 12:00:00 19.4 13 Sur 29 Sudoeste 0 -- -- 76
2019-08-09 11:00:00 19.5 18 Sur 27 Sur 1 -- -- 86
2019-08-09 10:00:00 18 6 Nordeste 23 Sudoeste 1 -- -- 93
2019-08-09 09:00:00 17.8 14 Sur 31 Sudoeste 0.4 -- -- 90
2019-08-09 08:00:00 17.4 8 Sur 23 Sur 1.2 -- -- 92
2019-08-09 07:00:00 17.5 11 Sur 44 Sudoeste 0.8 -- -- 91
2019-08-09 06:00:00 18 17 Sur 46 Sur 0.4 -- -- 87
2019-08-09 05:00:00 19 19 Sur 41 Sur 0 -- -- 79
2019-08-09 04:00:00 19.1 18 Sur 49 Sur 0 -- -- 78
2019-08-09 03:00:00 19.6 21 Sur 41 Sur 0 -- -- 74
2019-08-09 02:00:00 19.9 16 Sudoeste 38 Oeste 0 -- -- 72
2019-08-09 01:00:00 20.3 17 Sur 36 Sur 0 -- -- 71
2019-08-09 00:00:00 20.6 15 Sudoeste 34 Sudoeste 0 -- -- 66
2019-08-08 23:00:00 20.6 13 Sudoeste 41 Sudoeste 0 -- -- 66
2019-08-08 22:00:00 21.4 15 Sudoeste 40 Sudoeste 0 -- -- 68
2019-08-08 21:00:00 22 21 Sudoeste 39 Sudoeste 0 -- -- 68
2019-08-08 20:00:00 22.4 15 Sudoeste 46 Sur 0 -- -- 68
2019-08-08 19:00:00 22.6 24 Sur 45 Sudoeste 0.2 -- -- 68
2019-08-08 18:00:00 22.2 14 Sur 28 Sur 0 -- -- 74
2019-08-08 17:00:00 20.5 8 Sur 23 Sur 0 -- -- 85
2019-08-08 16:00:00 21.1 5 Sur 23 Sudoeste 0.2 -- -- 82
2019-08-08 15:00:00 20.9 7 Sudoeste 28 Sur 0 -- -- 76
2019-08-08 14:00:00 20.6 15 Sudeste 23 Sudoeste 0 -- -- 81
2019-08-08 13:00:00 19.1 3 Sur 20 Sudeste 0 -- -- 83
2019-08-08 12:00:00 18.4 6 Sudeste 18 Sur 0 -- -- 88
2019-08-08 11:00:00 16.8 3 Sur 16 Sudoeste 0 -- -- 92
2019-08-08 10:00:00 16.5 2 Sudeste 23 Sudoeste 0 -- -- 93
2019-08-08 09:00:00 16.3 5 Sudeste 11 Este 0.2 -- -- 94
2019-08-08 08:00:00 15.9 4 Sudeste 9 Sudeste 0 -- -- 93
2019-08-08 07:00:00 15.8 2 Oeste 9 Nordeste 0 -- -- 92
2019-08-08 06:00:00 16 4 Nordeste 6 Este 0 -- -- 92
2019-08-08 05:00:00 16.2 4 Sur 10 Sudoeste 0 -- -- 89
2019-08-08 04:00:00 16.5 4 Oeste 10 Oeste 0 -- -- 85
2019-08-08 03:00:00 16.2 3 Sudoeste 12 Sur 0 -- -- 86
2019-08-08 02:00:00 15.7 0 Calma 10 Sur 0 -- -- 87
2019-08-08 01:00:00 15.7 3 Sudoeste 10 Sur 0 -- -- 87
2019-08-08 00:00:00 16.4 4 Sur 12 Sudeste 0 -- -- 82
2019-08-07 23:00:00 17.3 9 Sudeste 18 Sudoeste 0 -- -- 80
2019-08-07 22:00:00 17.6 6 Sudoeste 14 Sudoeste 0 -- -- 76
2019-08-07 21:00:00 18.3 4 Sur 19 Sudoeste 0 -- -- 73
2019-08-07 20:00:00 18.7 9 Sudoeste 27 Sudoeste 0 -- -- 69
2019-08-07 19:00:00 19.8 14 Sur 26 Sur 0 -- -- 62
2019-08-07 18:00:00 20 12 Sur 28 Sudoeste 0 -- -- 61
2019-08-07 17:00:00 21.3 18 Sudoeste 27 Sur 0 -- -- 56
2019-08-07 16:00:00 22 16 Sudoeste 32 Sudoeste 0 -- -- 55
2019-08-07 15:00:00 22.9 16 Sudoeste 29 Sudoeste 0 -- -- 52
2019-08-07 14:00:00 22.7 13 Sudoeste 29 Sudoeste 0 -- -- 55
2019-08-07 13:00:00 22.2 6 Nordeste 13 Este 0 -- -- 56
2019-08-07 12:00:00 21.4 4 Norte 9 Nordeste 0 -- -- 56
2019-08-07 11:00:00 19.3 6 Nordeste 9 Norte 0 -- -- 74
2019-08-07 10:00:00 16.5 4 Nordeste 8 Norte 0 -- -- 84
2019-08-07 09:00:00 14.4 3 Norte 10 Nordeste 0 -- -- 88
2019-08-07 08:00:00 13.6 6 Nordeste 10 Nordeste 0 -- -- 93
2019-08-07 07:00:00 13.4 0 Calma 11 Norte 0 -- -- 93
2019-08-07 06:00:00 13.6 0 Calma 12 Norte 0 -- -- 93
2019-08-07 05:00:00 14.5 6 Norte 13 Norte 0 -- -- 91
2019-08-07 04:00:00 15.1 3 Norte 10 Norte 0 -- -- 89
2019-08-07 03:00:00 15.2 5 Norte 13 Norte 0 -- -- 88
2019-08-07 02:00:00 15.5 5 Norte 10 Este 0 -- -- 87
2019-08-07 01:00:00 15.8 4 Nordeste 27 Norte 0 -- -- 86
2019-08-07 00:00:00 16.1 4 Norte 22 Norte 0 -- -- 86
2019-08-06 23:00:00 16.4 10 Norte 30 Norte 0 -- -- 85
2019-08-06 22:00:00 17 20 Norte 34 Norte 0 -- -- 85
2019-08-06 21:00:00 17.4 14 Norte 48 Norte 0 -- -- 85
2019-08-06 20:00:00 19 20 Norte 42 Norte 0 -- -- 83
2019-08-06 19:00:00 21 23 Norte 42 Norte 0 -- -- 74
2019-08-06 18:00:00 25.4 7 Norte 17 Sudoeste 0 -- -- 58
2019-08-06 17:00:00 24.7 5 Oeste 12 Noroeste 0 -- -- 51
2019-08-06 16:00:00 25.6 4 Noroeste 17 Sudoeste 0 -- -- 49
2019-08-06 15:00:00 27.3 9 Nordeste 14 Nordeste 0 -- -- 45
2019-08-06 14:00:00 26.2 9 Nordeste 17 Este 0 -- -- 58
2019-08-06 13:00:00 23.7 5 Nordeste 8 Norte 0 -- -- 64
2019-08-06 12:00:00 21.3 4 Norte 6 Norte 0 -- -- 74
2019-08-06 11:00:00 18.7 3 Nordeste 8 Sudeste 0 -- -- 80
2019-08-06 10:00:00 16.4 0 Calma 8 Este 0 -- -- 87
2019-08-06 09:00:00 14.9 7 Este 15 Este 0 -- -- 93
2019-08-06 08:00:00 14.4 9 Este 14 Este 0 -- -- 95
2019-08-06 07:00:00 14.4 2 Sur 10 Este 0 -- -- 95
2019-08-06 06:00:00 14.3 0 Calma 5 Sur 0 -- -- 95
2019-08-06 05:00:00 14.2 3 Este 8 Este 0 -- -- 94
2019-08-06 04:00:00 14.8 0 Calma 8 Nordeste 0 -- -- 93
2019-08-06 03:00:00 15.2 3 Sur 8 Sur 0 -- -- 92
2019-08-06 02:00:00 16.2 2 Sur 22 Norte 0 -- -- 89
2019-08-06 01:00:00 17 11 Norte 26 Norte 0 -- -- 90
2019-08-06 00:00:00 17.5 8 Norte 31 Norte 0 -- -- 88
2019-08-05 23:00:00 17.8 18 Norte 33 Norte 0 -- -- 87
2019-08-05 22:00:00 18.3 20 Norte 39 Norte 0 -- -- 85
2019-08-05 21:00:00 19.9 23 Norte 38 Norte 0 -- -- 79
2019-08-05 20:00:00 22.6 21 Norte 39 Norte 0 -- -- 69
2019-08-05 19:00:00 24.8 24 Norte 33 Norte 0 -- -- 61
2019-08-05 18:00:00 26.9 21 Norte 32 Norte 0 -- -- 54
2019-08-05 17:00:00 28.4 10 Sur 20 Oeste 0 -- -- 35
2019-08-05 16:00:00 27.7 12 Sudoeste 21 Sudoeste 0 -- -- 38
2019-08-05 15:00:00 28.2 8 Norte 15 Norte 0 -- -- 42
2019-08-05 14:00:00 27.2 8 Norte 15 Norte 0 -- -- 48
2019-08-05 13:00:00 25.2 5 Nordeste 8 Nordeste 0 -- -- 57
2019-08-05 12:00:00 21.9 4 Nordeste 7 Nordeste 0 -- -- 65
2019-08-05 11:00:00 18.5 4 Nordeste 8 Norte 0 -- -- 76
2019-08-05 10:00:00 14.7 2 Nordeste 10 Este 0 -- -- 88
2019-08-05 09:00:00 14 4 Este 10 Este 0 -- -- 91
2019-08-05 08:00:00 13.7 7 Nordeste 13 Este 0 -- -- 92
2019-08-05 07:00:00 13.8 5 Este 9 Este 0 -- -- 93
2019-08-05 06:00:00 13.4 3 Este 9 Este 0 -- -- 93
2019-08-05 05:00:00 13.3 7 Este 11 Este 0 -- -- 93
2019-08-05 04:00:00 13.4 2 Sudoeste 3 Sur 0 -- -- 92
2019-08-05 03:00:00 13.5 2 Nordeste 6 Nordeste 0 -- -- 93
2019-08-05 02:00:00 14.2 2 Sudoeste 5 Sudoeste 0 -- -- 91
2019-08-05 01:00:00 15.2 2 Este 8 Este 0 -- -- 88
2019-08-05 00:00:00 16.1 6 Este 27 Nordeste 0 -- -- 85
2019-08-04 23:00:00 17.3 15 Nordeste 33 Norte 0 -- -- 82
2019-08-04 22:00:00 17.4 15 Norte 40 Norte 0 -- -- 80
2019-08-04 21:00:00 18.2 30 Norte 48 Norte 0 -- -- 80
2019-08-04 20:00:00 20.1 31 Norte 51 Norte 0 -- -- 75
2019-08-04 19:00:00 24 27 Norte 46 Norte 0 -- -- 60
2019-08-04 18:00:00 28.7 12 Sur 30 Sur 0 -- -- 36
2019-08-04 17:00:00 28.5 6 Sur 30 Sur 0 -- -- 35
2019-08-04 16:00:00 28.1 11 Sudoeste 29 Sur 0 -- -- 37
2019-08-04 15:00:00 27.8 15 Sur 32 Sur 0 -- -- 42
2019-08-04 14:00:00 26.5 12 Sudoeste 32 Sur 0 -- -- 45
2019-08-04 13:00:00 26.7 6 Norte 14 Norte 0 -- -- 53
2019-08-04 12:00:00 24 5 Nordeste 8 Norte 0 -- -- 62
2019-08-04 11:00:00 20.2 4 Nordeste 6 Norte 0 -- -- 68
2019-08-04 10:00:00 16.8 3 Nordeste 6 Nordeste 0 -- -- 78
2019-08-04 09:00:00 14 3 Norte 7 Norte 0 -- -- 88
2019-08-04 08:00:00 11.1 0 Calma 4 Este 0 -- -- 93
2019-08-04 07:00:00 10.7 0 Calma 4 Norte 0 -- -- 94
2019-08-04 06:00:00 11.2 0 Calma 2 Sudoeste 0 -- -- 93
2019-08-04 05:00:00 12.1 0 Calma 2 Sur 0 -- -- 90
2019-08-04 04:00:00 13.2 0 Calma 6 Este 0 -- -- 86
2019-08-04 03:00:00 14 2 Norte 9 Nordeste 0 -- -- 83
2019-08-04 02:00:00 15.5 4 Norte 16 Nordeste 0 -- -- 76
2019-08-04 01:00:00 16.3 3 Sudoeste 27 Norte 0 -- -- 75
2019-08-04 00:00:00 17.6 18 Norte 29 Norte 0 -- -- 77
2019-08-03 23:00:00 18.5 5 Norte 29 Nordeste 0 -- -- 73
2019-08-03 22:00:00 19.7 14 Norte 32 Nordeste 0 -- -- 73
2019-08-03 21:00:00 21 15 Norte 38 Nordeste 0 -- -- 67
2019-08-03 20:00:00 23 20 Norte 39 Nordeste 0 -- -- 60
2019-08-03 19:00:00 24.4 24 Norte 40 Norte 0 -- -- 58
2019-08-03 18:00:00 26.3 27 Norte 36 Norte 0 -- -- 54
2019-08-03 17:00:00 29.6 11 Norte 23 Norte 0 -- -- 47
2019-08-03 16:00:00 28.5 6 Oeste 19 Noroeste 0 -- -- 37
2019-08-03 15:00:00 27.7 3 Norte 19 Norte 0 -- -- 41
2019-08-03 14:00:00 28.7 10 Norte 20 Norte 0 -- -- 44
2019-08-03 13:00:00 27 6 Norte 10 Norte 0 -- -- 48
2019-08-03 12:00:00 23.4 4 Nordeste 6 Nordeste 0 -- -- 59
2019-08-03 11:00:00 19.7 4 Nordeste 5 Nordeste 0 -- -- 68
2019-08-03 10:00:00 15.9 2 Norte 6 Nordeste 0 -- -- 73
2019-08-03 09:00:00 13.6 3 Nordeste 6 Este 0 -- -- 85
2019-08-03 08:00:00 10.9 0 Calma 2 Sudeste 0 -- -- 94
2019-08-03 07:00:00 9.7 0 Calma 3 Sudoeste 0 -- -- 95
2019-08-03 06:00:00 10.2 0 Calma 3 Sur 0 -- -- 93
2019-08-03 05:00:00 10.7 0 Calma 5 Sudoeste 0 -- -- 92
2019-08-03 04:00:00 11.3 2 Noroeste 5 Noroeste 0 -- -- 91
2019-08-03 03:00:00 12 0 Calma 4 Sur 0 -- -- 89
2019-08-03 02:00:00 13 0 Calma 3 Noroeste 0 -- -- 86
2019-08-03 01:00:00 14.2 0 Calma 5 Noroeste 0 -- -- 80
2019-08-03 00:00:00 15.8 0 Calma 8 Sur 0 -- -- 76
2019-08-02 23:00:00 17.9 4 Este 15 Nordeste 0 -- -- 64
2019-08-02 22:00:00 19.6 4 Nordeste 15 Norte 0 -- -- 61
2019-08-02 21:00:00 21.6 5 Norte 27 Norte 0 -- -- 56
2019-08-02 20:00:00 23.3 15 Norte 33 Nordeste 0 -- -- 50
2019-08-02 19:00:00 25 18 Norte 31 Norte 0 -- -- 47
2019-08-02 18:00:00 26.4 22 Norte 30 Norte 0 -- -- 48
2019-08-02 17:00:00 28.3 17 Norte 27 Norte 0 -- -- 42
2019-08-02 16:00:00 27.8 10 Norte 14 Nordeste 0 -- -- 41
2019-08-02 15:00:00 27.5 4 Sudeste 17 Noroeste 0 -- -- 38
2019-08-02 14:00:00 27.2 6 Norte 10 Norte 0 -- -- 49
2019-08-02 13:00:00 25.1 5 Nordeste 7 Norte 0 -- -- 54
2019-08-02 12:00:00 21.6 3 Nordeste 5 Nordeste 0 -- -- 58
2019-08-02 11:00:00 17.6 4 Nordeste 6 Nordeste 0 -- -- 69
2019-08-02 10:00:00 14.1 4 Nordeste 8 Nordeste 0 -- -- 85
2019-08-02 09:00:00 11.6 5 Este 9 Este 0 -- -- 91
2019-08-02 08:00:00 10.4 5 Este 9 Este 0 -- -- 95
2019-08-02 07:00:00 10.6 4 Este 10 Este 0 -- -- 94
2019-08-02 06:00:00 10.5 3 Sudeste 9 Este 0 -- -- 94
2019-08-02 05:00:00 10.8 2 Sur 6 Este 0 -- -- 93
2019-08-02 04:00:00 11.5 3 Sudeste 10 Este 0 -- -- 93
2019-08-02 03:00:00 12.3 4 Este 10 Nordeste 0 -- -- 92
2019-08-02 02:00:00 13.5 4 Este 18 Nordeste 0 -- -- 88
2019-08-02 01:00:00 14.4 6 Noroeste 31 Norte 0 -- -- 85
2019-08-02 00:00:00 15 18 Norte 33 Norte 0 -- -- 85
2019-08-01 23:00:00 15.6 19 Norte 37 Nordeste 0 -- -- 82
2019-08-01 22:00:00 16.4 17 Norte 36 Norte 0 -- -- 77
2019-08-01 21:00:00 17.8 23 Norte 38 Nordeste 0 -- -- 75
2019-08-01 20:00:00 19.9 26 Norte 39 Norte 0 -- -- 68
2019-08-01 19:00:00 21.6 24 Norte 34 Norte 0 -- -- 63
2019-08-01 18:00:00 22.7 26 Norte 37 Norte 0 -- -- 56
2019-08-01 17:00:00 23.5 26 Norte 34 Nordeste 0 -- -- 50
2019-08-01 16:00:00 22.3 25 Norte 33 Norte 0 -- -- 56
2019-08-01 15:00:00 23 26 Norte 32 Norte 0 -- -- 59
2019-08-01 14:00:00 23.2 19 Norte 27 Norte 0 -- -- 58
2019-08-01 13:00:00 22.7 17 Norte 21 Norte 0 -- -- 60
2019-08-01 12:00:00 20.7 7 Norte 10 Norte 0 -- -- 65
2019-08-01 11:00:00 17.5 4 Nordeste 7 Nordeste 0 -- -- 74
2019-08-01 10:00:00 13.4 4 Este 12 Este 0 -- -- 88
2019-08-01 09:00:00 11.7 9 Este 15 Sudeste 0 -- -- 92
2019-08-01 08:00:00 11.1 8 Sudeste 13 Sudeste 0 -- -- 94
2019-08-01 07:00:00 11.2 6 Este 12 Este 0 -- -- 92
2019-08-01 06:00:00 11.5 7 Este 12 Este 0 -- -- 93
2019-08-01 05:00:00 11.8 5 Este 13 Este 0 -- -- 92
2019-08-01 04:00:00 11.8 6 Este 14 Nordeste 0 -- -- 92
2019-08-01 03:00:00 12.3 6 Nordeste 16 Nordeste 0 -- -- 91
2019-08-01 02:00:00 13.1 9 Nordeste 19 Norte 0 -- -- 90
2019-08-01 01:00:00 13.5 13 Nordeste 27 Norte 0 -- -- 90
2019-08-01 00:00:00 13.8 5 Norte 23 Nordeste 0 -- -- 89
2019-07-31 23:00:00 14.4 13 Norte 32 Norte 0 -- -- 87
2019-07-31 22:00:00 15.5 13 Norte 37 Norte 0 -- -- 83
2019-07-31 21:00:00 16.5 18 Norte 37 Norte 0 -- -- 80
2019-07-31 20:00:00 18.2 19 Norte 35 Norte 0 -- -- 73
2019-07-31 19:00:00 20.7 10 Norte 23 Norte 0 -- -- 63
2019-07-31 18:00:00 22.9 17 Norte 25 Norte 0 -- -- 56
2019-07-31 17:00:00 23.9 4 Oeste 10 Noroeste 0 -- -- 35
2019-07-31 16:00:00 23.9 5 Noroeste 15 Sudeste 0 -- -- 34
2019-07-31 15:00:00 23.8 4 Nordeste 15 Norte 0 -- -- 47
2019-07-31 14:00:00 22.7 5 Norte 10 Norte 0 -- -- 47
2019-07-31 13:00:00 20.7 5 Nordeste 12 Nordeste 0 -- -- 54
2019-07-31 12:00:00 18.7 6 Nordeste 11 Nordeste 0 -- -- 64
2019-07-31 11:00:00 16 6 Norte 11 Nordeste 0 -- -- 73
2019-07-31 10:00:00 12.5 3 Sudeste 8 Sudeste 0 -- -- 81
2019-07-31 09:00:00 9.8 6 Este 11 Este 0 -- -- 92
2019-07-31 08:00:00 9 4 Este 11 Este 0 -- -- 93
2019-07-31 07:00:00 8.4 5 Este 9 Este 0 -- -- 95
2019-07-31 06:00:00 8.4 3 Sur 6 Sudeste 0 -- -- 94
2019-07-31 05:00:00 8.8 0 Calma 6 Sur 0 -- -- 91
2019-07-31 04:00:00 9.8 2 Sur 17 Nordeste 0 -- -- 90
2019-07-31 03:00:00 11.1 10 Norte 24 Norte 0 -- -- 87
2019-07-31 02:00:00 11.9 20 Norte 26 Norte 0 -- -- 87
2019-07-31 01:00:00 12.1 16 Norte 26 Norte 0 -- -- 85
2019-07-31 00:00:00 12.2 13 Norte 28 Norte 0 -- -- 85
2019-07-30 23:00:00 12.1 17 Norte 34 Norte 0 -- -- 87
2019-07-30 22:00:00 12.8 23 Norte 33 Norte 0 -- -- 86
2019-07-30 21:00:00 13.9 19 Norte 42 Norte 0 -- -- 77
2019-07-30 20:00:00 16.9 26 Norte 39 Norte 0 -- -- 67
2019-07-30 19:00:00 18.6 25 Norte 35 Norte 0 -- -- 61
2019-07-30 18:00:00 19.8 15 Norte 30 Norte 0 -- -- 56
2019-07-30 17:00:00 20.4 19 Norte 27 Nordeste 0 -- -- 53
2019-07-30 16:00:00 20.5 15 Norte 22 Norte 0 -- -- 51
2019-07-30 15:00:00 19.8 15 Norte 21 Norte 0 -- -- 47
2019-07-30 14:00:00 19.1 13 Norte 22 Norte 0 -- -- 52
2019-07-30 13:00:00 18.1 11 Norte 22 Norte 0 -- -- 54
2019-07-30 12:00:00 17.1 12 Norte 20 Nordeste 0 -- -- 56
2019-07-30 11:00:00 15.4 9 Norte 21 Norte 0 -- -- 60
2019-07-30 10:00:00 13.8 14 Norte 25 Norte 0 -- -- 65
2019-07-30 09:00:00 12.9 13 Norte 24 Norte 0 -- -- 68
2019-07-30 08:00:00 10.9 10 Nordeste 18 Norte 0 -- -- 77
2019-07-30 07:00:00 9.4 12 Norte 25 Norte 0 -- -- 82
2019-07-30 06:00:00 9.8 12 Norte 32 Norte 0 -- -- 80
2019-07-30 05:00:00 10.6 12 Noroeste 31 Noroeste 0 -- -- 72
2019-07-30 04:00:00 11.3 12 Noroeste 32 Noroeste 0 -- -- 71
2019-07-30 03:00:00 11.5 8 Noroeste 17 Noroeste 0 -- -- 77
2019-07-30 02:00:00 10.7 3 Sudoeste 8 Oeste 0 -- -- 86
2019-07-30 01:00:00 11.8 3 Noroeste 28 Nordeste 0 -- -- 81
2019-07-30 00:00:00 12.8 10 Norte 30 Norte 0 -- -- 81
2019-07-29 23:00:00 13.7 19 Norte 33 Norte 0 -- -- 84
2019-07-29 22:00:00 14.4 19 Norte 35 Norte 0 -- -- 81
2019-07-29 21:00:00 16.2 17 Norte 33 Norte 0 -- -- 71
2019-07-29 20:00:00 17.4 27 Norte 41 Norte 0 -- -- 68
2019-07-29 19:00:00 19.9 26 Norte 37 Norte 0 -- -- 60
2019-07-29 18:00:00 22.6 7 Sudoeste 33 Oeste 0 -- -- 36
2019-07-29 17:00:00 22.1 12 Sudoeste 28 Sudoeste 0 -- -- 32
2019-07-29 16:00:00 21.9 11 Sudoeste 36 Sur 0 -- -- 35
2019-07-29 15:00:00 21.8 6 Sudoeste 27 Sudoeste 0 -- -- 41
2019-07-29 14:00:00 21.2 10 Oeste 33 Oeste 0 -- -- 48
2019-07-29 13:00:00 20.9 17 Sudoeste 29 Sudoeste 0 -- -- 52
2019-07-29 12:00:00 19.3 10 Sudoeste 30 Sudoeste 0 -- -- 62
2019-07-29 11:00:00 18.3 4 Norte 8 Nordeste 0 -- -- 70
2019-07-29 10:00:00 14.3 2 Este 7 Nordeste 0 -- -- 77
2019-07-29 09:00:00 11.8 4 Nordeste 8 Este 0 -- -- 84
2019-07-29 08:00:00 9.3 0 Calma 4 Sur 0 -- -- 94
2019-07-29 07:00:00 7.5 5 Sudoeste 7 Sur 0 -- -- 95
2019-07-29 06:00:00 7.9 0 Calma 4 Sur 0 -- -- 94
2019-07-29 05:00:00 8.6 0 Calma 5 Sur 0 -- -- 93
2019-07-29 04:00:00 9.3 0 Calma 5 Norte 0 -- -- 93
2019-07-29 03:00:00 9.9 0 Calma 4 Sudoeste 0 -- -- 91
2019-07-29 02:00:00 10.5 0 Calma 4 Sur 0 -- -- 89
2019-07-29 01:00:00 11.5 0 Calma 4 Sur 0 -- -- 87
2019-07-29 00:00:00 12.9 0 Calma 6 Oeste 0 -- -- 83
2019-07-28 23:00:00 14.3 2 Sudoeste 5 Noroeste 0 -- -- 76
2019-07-28 22:00:00 15.9 0 Calma 8 Sudoeste 0 -- -- 67
2019-07-28 21:00:00 19.4 4 Sudoeste 13 Oeste 0 -- -- 53
2019-07-28 20:00:00 21.6 4 Oeste 17 Sudoeste 0 -- -- 48
2019-07-28 19:00:00 22.3 8 Sur 20 Sur 0 -- -- 45
2019-07-28 18:00:00 22.2 6 Sudoeste 18 Sudoeste 0 -- -- 47
2019-07-28 17:00:00 22.8 5 Sudeste 23 Sur 0 -- -- 48
2019-07-28 16:00:00 21.8 10 Sur 16 Sur 0 -- -- 50
2019-07-28 15:00:00 20 7 Sudoeste 18 Sudoeste 0 -- -- 50
2019-07-28 14:00:00 20.1 6 Nordeste 14 Nordeste 0 -- -- 60
2019-07-28 13:00:00 19 9 Este 13 Este 0 -- -- 62
2019-07-28 12:00:00 17.8 8 Norte 12 Norte 0 -- -- 66
2019-07-28 11:00:00 14.7 4 Este 7 Este 0 -- -- 76
2019-07-28 10:00:00 11.6 3 Sudeste 9 Sudeste 0 -- -- 85
2019-07-28 09:00:00 8.9 2 Este 10 Este 0 -- -- 95
2019-07-28 08:00:00 7.7 0 Calma 13 Este 0 -- -- 96
2019-07-28 07:00:00 7.5 7 Este 10 Este 0 -- -- 97
2019-07-28 06:00:00 7.7 3 Este 11 Este 0 -- -- 96
2019-07-28 05:00:00 7.8 3 Sur 12 Nordeste 0 -- -- 96
2019-07-28 04:00:00 8.4 2 Sudoeste 14 Sudoeste 0 -- -- 94
2019-07-28 03:00:00 9.2 3 Sudoeste 15 Este 0 -- -- 92
2019-07-28 02:00:00 10.2 5 Noroeste 24 Noroeste 0 -- -- 85
2019-07-28 01:00:00 10.6 12 Norte 22 Nordeste 0 -- -- 88
2019-07-28 00:00:00 11.5 16 Norte 26 Norte 0.2 -- -- 89
2019-07-27 23:00:00 11.6 18 Norte 29 Nordeste 0 -- -- 92
2019-07-26 12:00:00 -- -- -- -- -- -- -- -- --
2019-07-26 11:00:00 13.2 25 Norte 35 Norte 0 -- -- 94
2019-07-26 10:00:00 13.9 18 Norte 29 Norte 0 -- -- 97
2019-07-26 09:00:00 13.2 9 Norte 29 Norte 5.6 -- -- 97
2019-07-26 08:00:00 12.7 6 Sudoeste 21 Sudoeste 32.8 -- -- 96
2019-07-26 07:00:00 14.6 16 Norte 34 Norte 0.2 -- -- 95
2019-07-26 06:00:00 15 9 Norte 15 Norte 0 -- -- 95
2019-07-26 05:00:00 15.1 6 Nordeste 20 Nordeste 7 -- -- 93
2019-07-26 04:00:00 16 16 Norte 29 Norte 0.4 -- -- 87
2019-07-26 03:00:00 16 11 Norte 35 Norte 0 -- -- 87
2019-07-26 02:00:00 17 15 Norte 30 Norte 0 -- -- 82
2019-07-26 01:00:00 17.6 10 Nordeste 20 Norte 0 -- -- 82
2019-07-26 00:00:00 17.7 7 Norte 18 Norte 0 -- -- 82
2019-07-25 23:00:00 18 7 Noroeste 24 Nordeste 0 -- -- 80
2019-07-25 22:00:00 18.9 7 Norte 36 Norte 0 -- -- 74
2019-07-25 21:00:00 20.9 8 Noroeste 36 Noroeste 0 -- -- 66
2019-07-25 20:00:00 25.7 9 Sudoeste 37 Sudoeste 0 -- -- 37
2019-07-25 19:00:00 28.1 10 Sudoeste 35 Sudoeste 0 -- -- 36
2019-07-25 18:00:00 27.9 11 Sudoeste 44 Sudoeste 0 -- -- 35
2019-07-25 17:00:00 28.8 13 Sur 40 Sur 0 -- -- 34
2019-07-25 16:00:00 28.7 17 Sudoeste 38 Sudoeste 0 -- -- 32
2019-07-25 15:00:00 27.5 12 Sudoeste 31 Sudoeste 0 -- -- 35
2019-07-25 14:00:00 26.9 10 Sudoeste 28 Sudoeste 0 -- -- 34
2019-07-25 13:00:00 27 12 Sur 36 Sur 0 -- -- 34
2019-07-25 12:00:00 27 6 Sudeste 22 Sudoeste 0 -- -- 38
2019-07-25 11:00:00 26.1 8 Sudeste 14 Sudeste 0 -- -- 43
2019-07-25 10:00:00 22.4 6 Sur 13 Sudoeste 0 -- -- 52
2019-07-25 09:00:00 17.6 3 Sur 9 Sudoeste 0 -- -- 78
2019-07-25 08:00:00 14 0 Calma 5 Sudoeste 0 -- -- 87
2019-07-25 07:00:00 12.9 0 Calma 9 Sudoeste 0 -- -- 88
2019-07-25 06:00:00 13.3 3 Oeste 8 Noroeste 0 -- -- 87
2019-07-25 05:00:00 13.8 0 Calma 3 Sudeste 0 -- -- 84
2019-07-25 04:00:00 14.2 0 Calma 5 Sudoeste 0 -- -- 83
2019-07-25 03:00:00 14.8 0 Calma 5 Sudoeste 0 -- -- 81
2019-07-25 02:00:00 15.7 0 Calma 4 Sur 0 -- -- 79
2019-07-25 01:00:00 17.2 0 Calma 6 Noroeste 0 -- -- 73
2019-07-25 00:00:00 18.9 0 Calma 6 Nordeste 0 -- -- 70
2019-07-24 23:00:00 20.1 2 Oeste 6 Oeste 0 -- -- 64
2019-07-24 22:00:00 22.4 0 Calma 5 Sudoeste 0 -- -- 57
2019-07-24 21:00:00 26.4 4 Sudoeste 22 Sudoeste 0 -- -- 42
2019-07-24 20:00:00 28.9 8 Sudoeste 26 Sudoeste 0 -- -- 36
2019-07-24 19:00:00 29.6 11 Sudoeste 36 Sudoeste 0 -- -- 36
2019-07-24 18:00:00 30.4 10 Sudoeste 38 Sudoeste 0 -- -- 32
2019-07-24 17:00:00 30.1 14 Sudoeste 32 Sudoeste 0 -- -- 34
2019-07-24 16:00:00 29.5 15 Sur 37 Sudoeste 0 -- -- 39
2019-07-24 15:00:00 28.4 17 Sudoeste 42 Sudeste 0 -- -- 41
2019-07-24 14:00:00 29.3 15 Sur 36 Sur 0 -- -- 39
2019-07-24 13:00:00 28.3 15 Sur 30 Sur 0 -- -- 48
2019-07-24 12:00:00 26.6 10 Sudeste 19 Sudeste 0 -- -- 53
2019-07-24 11:00:00 23.3 6 Nordeste 8 Nordeste 0 -- -- 66
2019-07-24 10:00:00 19.5 3 Norte 5 Nordeste 0 -- -- 75
2019-07-24 09:00:00 17 2 Este 7 Sur 0 -- -- 79
2019-07-24 08:00:00 14.1 0 Calma 5 Oeste 0 -- -- 89
2019-07-24 07:00:00 13.4 0 Calma 8 Sudoeste 0 -- -- 89
2019-07-24 06:00:00 14.1 2 Noroeste 7 Sur 0 -- -- 87
2019-07-24 05:00:00 15 0 Calma 7 Noroeste 0 -- -- 86
2019-07-24 04:00:00 15.6 2 Sur 8 Sudoeste 0 -- -- 84
2019-07-24 03:00:00 17 3 Sudoeste 10 Sur 0 -- -- 78
2019-07-24 02:00:00 18.3 4 Sur 23 Este 0 -- -- 70
2019-07-24 01:00:00 18.5 5 Oeste 14 Este 0 -- -- 76
2019-07-24 00:00:00 19.5 4 Sudoeste 10 Sudoeste 0 -- -- 81
2019-07-23 23:00:00 20.7 3 Noroeste 31 Nordeste 0 -- -- 80
2019-07-23 22:00:00 21.3 6 Oeste 40 Nordeste 0 -- -- 80
2019-07-23 21:00:00 22.3 27 Norte 43 Norte 0 -- -- 77
2019-07-23 20:00:00 27.7 6 Oeste 17 Sudoeste 0 -- -- 49
2019-07-23 19:00:00 30 4 Sur 17 Sudoeste 0 -- -- 39
2019-07-23 18:00:00 29.3 6 Sudoeste 26 Sur 0 -- -- 41
2019-07-23 17:00:00 28.5 15 Sudoeste 30 Sudoeste 0 -- -- 38
2019-07-23 16:00:00 28.3 17 Sur 29 Sur 0 -- -- 43
2019-07-23 15:00:00 28.3 23 Sudeste 35 Sudeste 0 -- -- 47
2019-07-23 14:00:00 27.2 15 Sur 39 Sur 0 -- -- 46
2019-07-23 13:00:00 24.6 2 Norte 5 Nordeste 0 -- -- 62
2019-07-23 12:00:00 24.1 3 Norte 8 Noroeste 0 -- -- 64
2019-07-23 11:00:00 20.9 7 Norte 16 Nordeste 0 -- -- 75
2019-07-23 10:00:00 17.7 6 Noroeste 10 Noroeste 0 -- -- 92
2019-07-23 09:00:00 16 4 Este 11 Sur 0 -- -- 94
2019-07-23 08:00:00 14.3 5 Sudoeste 8 Sudoeste 0 -- -- 96
2019-07-23 07:00:00 14.2 0 Calma 5 Sur 0 -- -- 96
2019-07-23 06:00:00 14.5 0 Calma 7 Sur 0 -- -- 95
2019-07-23 05:00:00 15.5 3 Sudoeste 13 Sudoeste 0 -- -- 95
2019-07-23 04:00:00 16 3 Sudoeste 10 Noroeste 0 -- -- 95
2019-07-23 03:00:00 16 3 Sudoeste 12 Sudoeste 0 -- -- 95
2019-07-23 02:00:00 16 5 Oeste 12 Sudoeste 0 -- -- 95
2019-07-23 01:00:00 16.3 6 Sudoeste 17 Sur 0.2 -- -- 93
2019-07-23 00:00:00 16.6 4 Noroeste 8 Noroeste 0 -- -- 93
2019-07-22 23:00:00 16.7 4 Sur 17 Sudoeste 0.6 -- -- 90
2019-07-22 22:00:00 17.1 13 Nordeste 97 Sur 6.8 -- -- 91
2019-07-22 21:00:00 28.2 38 Sudeste 85 Sur 0 -- -- 42
2019-07-22 20:00:00 30.7 3 Noroeste 9 Sudoeste 0 -- -- 46
2019-07-22 19:00:00 31.3 6 Oeste 18 Oeste 0 -- -- 36
2019-07-22 18:00:00 33.1 7 Oeste 24 Sudeste 0 -- -- 33
2019-07-22 17:00:00 33.2 8 Sudeste 26 Sur 0 -- -- 35
2019-07-22 16:00:00 32.3 9 Sudoeste 33 Sudoeste 0 -- -- 35
2019-07-22 15:00:00 32.2 17 Sur 28 Sur 0 -- -- 37
2019-07-22 14:00:00 30.4 8 Noroeste 15 Sudoeste 0 -- -- 46
2019-07-22 13:00:00 28.3 7 Nordeste 10 Nordeste 0 -- -- 52
2019-07-22 12:00:00 25.2 5 Nordeste 7 Nordeste 0 -- -- 65
2019-07-22 11:00:00 21.3 5 Norte 11 Norte 0 -- -- 74
2019-07-22 10:00:00 17 2 Norte 8 Este 0 -- -- 88
2019-07-22 09:00:00 14.2 3 Nordeste 8 Este 0 -- -- 97
2019-07-22 08:00:00 13.5 5 Este 9 Este 0 -- -- 97
2019-07-22 07:00:00 14 4 Este 10 Este 0 -- -- 96
2019-07-22 06:00:00 14.6 4 Este 10 Este 0 -- -- 95
2019-07-22 05:00:00 14.9 5 Este 10 Este 0 -- -- 94
2019-07-22 04:00:00 15.3 2 Este 10 Este 0 -- -- 94
2019-07-22 03:00:00 15.6 6 Nordeste 10 Este 0 -- -- 92
2019-07-22 02:00:00 15.7 5 Nordeste 12 Norte 0 -- -- 92
2019-07-22 01:00:00 16 8 Este 19 Nordeste 0 -- -- 91
2019-07-22 00:00:00 16.6 6 Nordeste 23 Este 0 -- -- 90
2019-07-21 23:00:00 17.1 15 Nordeste 24 Nordeste 0 -- -- 90
2019-07-21 22:00:00 17.8 8 Norte 35 Norte 0 -- -- 85
2019-07-21 21:00:00 19.7 21 Norte 37 Norte 0 -- -- 79
2019-07-21 20:00:00 21.8 19 Norte 37 Nordeste 0 -- -- 71
2019-07-21 19:00:00 22.4 17 Norte 44 Norte 0 -- -- 69
2019-07-21 18:00:00 24.5 24 Norte 45 Norte 0 -- -- 62
2019-07-21 17:00:00 30.5 6 Oeste 19 Sur 0 -- -- 34
2019-07-21 16:00:00 30.1 6 Noroeste 19 Sudoeste 0 -- -- 42
2019-07-21 15:00:00 28.5 8 Sudoeste 22 Sudoeste 0 -- -- 42
2019-07-21 14:00:00 28.6 7 Norte 12 Norte 0 -- -- 48
2019-07-21 13:00:00 25.1 7 Nordeste 8 Norte 0 -- -- 56
2019-07-21 12:00:00 22.2 3 Norte 7 Nordeste 0 -- -- 68
2019-07-21 11:00:00 17.2 4 Nordeste 11 Norte 0 -- -- 80
2019-07-21 10:00:00 14 4 Norte 10 Norte 0 -- -- 92
2019-07-21 09:00:00 12.9 4 Sudeste 9 Este 0 -- -- 96
2019-07-21 08:00:00 12.6 4 Este 10 Este 0 -- -- 95
2019-07-21 07:00:00 13 5 Este 14 Este 0 -- -- 95
2019-07-21 06:00:00 13.5 4 Nordeste 12 Nordeste 0 -- -- 94
2019-07-21 05:00:00 13.4 2 Sudoeste 9 Norte 0 -- -- 95
2019-07-21 04:00:00 12.7 0 Calma 9 Nordeste 0 -- -- 92
2019-07-21 03:00:00 13.4 2 Noroeste 10 Nordeste 0 -- -- 91
2019-07-21 02:00:00 14.6 5 Este 21 Norte 0 -- -- 89
2019-07-21 01:00:00 16 15 Norte 28 Norte 0 -- -- 88
2019-07-21 00:00:00 16.3 23 Norte 32 Nordeste 0 -- -- 88